sensor_id;sensor_type;location;lat;lon;timestamp;temperature;humidity
3310;DHT22;1667;53.238;10.394;2023-09-12T00:04:09;24.50;96.00
3310;DHT22;1667;53.238;10.394;2023-09-12T00:09:08;24.50;95.90
3310;DHT22;1667;53.238;10.394;2023-09-12T00:14:10;24.40;95.70
3310;DHT22;1667;53.238;10.394;2023-09-12T00:19:13;24.40;95.70
3310;DHT22;1667;53.238;10.394;2023-09-12T00:24:13;24.30;95.80
3310;DHT22;1667;53.238;10.394;2023-09-12T00:29:13;24.30;96.00
3310;DHT22;1667;53.238;10.394;2023-09-12T00:34:16;24.30;96.40
3310;DHT22;1667;53.238;10.394;2023-09-12T00:39:15;24.20;96.10
3310;DHT22;1667;53.238;10.394;2023-09-12T00:44:15;24.20;96.10
3310;DHT22;1667;53.238;10.394;2023-09-12T00:49:14;24.20;96.50
3310;DHT22;1667;53.238;10.394;2023-09-12T00:54:14;24.10;96.50
3310;DHT22;1667;53.238;10.394;2023-09-12T00:59:16;24.10;96.30
3310;DHT22;1667;53.238;10.394;2023-09-12T01:04:16;24.10;96.20
3310;DHT22;1667;53.238;10.394;2023-09-12T01:09:31;24.00;96.80
3310;DHT22;1667;53.238;10.394;2023-09-12T01:14:32;24.00;96.50
3310;DHT22;1667;53.238;10.394;2023-09-12T01:19:31;23.90;97.10
3310;DHT22;1667;53.238;10.394;2023-09-12T01:30:08;23.90;97.10
3310;DHT22;1667;53.238;10.394;2023-09-12T01:35:08;23.80;97.50
3310;DHT22;1667;53.238;10.394;2023-09-12T01:40:08;23.80;97.50
3310;DHT22;1667;53.238;10.394;2023-09-12T01:45:10;23.80;97.50
3310;DHT22;1667;53.238;10.394;2023-09-12T01:50:10;23.80;97.70
3310;DHT22;1667;53.238;10.394;2023-09-12T01:55:10;23.80;97.70
3310;DHT22;1667;53.238;10.394;2023-09-12T02:00:13;23.70;97.70
3310;DHT22;1667;53.238;10.394;2023-09-12T02:05:14;23.70;97.90
3310;DHT22;1667;53.238;10.394;2023-09-12T02:10:15;23.70;97.80
3310;DHT22;1667;53.238;10.394;2023-09-12T02:16:11;23.70;97.90
3310;DHT22;1667;53.238;10.394;2023-09-12T02:21:10;23.70;97.40
3310;DHT22;1667;53.238;10.394;2023-09-12T02:26:10;23.70;97.80
3310;DHT22;1667;53.238;10.394;2023-09-12T02:31:11;23.60;98.00
3310;DHT22;1667;53.238;10.394;2023-09-12T02:36:11;23.60;97.60
3310;DHT22;1667;53.238;10.394;2023-09-12T02:41:09;23.60;97.80
3310;DHT22;1667;53.238;10.394;2023-09-12T02:46:10;23.60;97.50
3310;DHT22;1667;53.238;10.394;2023-09-12T02:51:11;23.60;97.70
3310;DHT22;1667;53.238;10.394;2023-09-12T02:56:10;23.60;97.70
3310;DHT22;1667;53.238;10.394;2023-09-12T03:01:15;23.60;97.80
3310;DHT22;1667;53.238;10.394;2023-09-12T03:06:15;23.60;98.00
3310;DHT22;1667;53.238;10.394;2023-09-12T03:11:16;23.50;98.10
3310;DHT22;1667;53.238;10.394;2023-09-12T03:16:16;23.50;98.10
3310;DHT22;1667;53.238;10.394;2023-09-12T03:21:15;23.40;98.20
3310;DHT22;1667;53.238;10.394;2023-09-12T03:26:14;23.40;98.40
3310;DHT22;1667;53.238;10.394;2023-09-12T03:31:13;23.40;98.40
3310;DHT22;1667;53.238;10.394;2023-09-12T03:36:14;23.40;98.30
3310;DHT22;1667;53.238;10.394;2023-09-12T03:41:13;23.40;98.20
3310;DHT22;1667;53.238;10.394;2023-09-12T03:46:12;23.30;98.30
3310;DHT22;1667;53.238;10.394;2023-09-12T03:51:14;23.30;98.20
3310;DHT22;1667;53.238;10.394;2023-09-12T03:56:12;23.30;98.50
3310;DHT22;1667;53.238;10.394;2023-09-12T04:01:12;23.30;98.50
3310;DHT22;1667;53.238;10.394;2023-09-12T04:06:13;23.30;98.50
3310;DHT22;1667;53.238;10.394;2023-09-12T04:11:12;23.20;98.50
3310;DHT22;1667;53.238;10.394;2023-09-12T04:16:11;23.20;98.50
3310;DHT22;1667;53.238;10.394;2023-09-12T04:21:10;23.20;98.70
3310;DHT22;1667;53.238;10.394;2023-09-12T04:26:11;23.10;98.70
3310;DHT22;1667;53.238;10.394;2023-09-12T04:31:10;23.10;98.80
3310;DHT22;1667;53.238;10.394;2023-09-12T04:36:09;23.10;98.80
3310;DHT22;1667;53.238;10.394;2023-09-12T04:41:11;23.00;98.90
3310;DHT22;1667;53.238;10.394;2023-09-12T04:46:14;23.00;99.00
3310;DHT22;1667;53.238;10.394;2023-09-12T04:51:13;23.00;98.70
3310;DHT22;1667;53.238;10.394;2023-09-12T04:56:13;23.00;98.90
3310;DHT22;1667;53.238;10.394;2023-09-12T05:01:13;22.90;98.80
3310;DHT22;1667;53.238;10.394;2023-09-12T05:06:13;22.90;99.00
3310;DHT22;1667;53.238;10.394;2023-09-12T05:11:12;22.90;99.00
3310;DHT22;1667;53.238;10.394;2023-09-12T05:16:11;22.90;99.10
3310;DHT22;1667;53.238;10.394;2023-09-12T05:21:12;22.90;99.00
3310;DHT22;1667;53.238;10.394;2023-09-12T05:26:11;22.90;99.30
3310;DHT22;1667;53.238;10.394;2023-09-12T05:31:10;22.80;99.20
3310;DHT22;1667;53.238;10.394;2023-09-12T05:36:09;22.80;99.60
3310;DHT22;1667;53.238;10.394;2023-09-12T05:41:09;22.80;99.30
3310;DHT22;1667;53.238;10.394;2023-09-12T05:46:09;22.80;99.40
3310;DHT22;1667;53.238;10.394;2023-09-12T05:51:08;22.70;99.60
3310;DHT22;1667;53.238;10.394;2023-09-12T05:56:09;22.70;99.70
3310;DHT22;1667;53.238;10.394;2023-09-12T06:01:08;22.80;99.70
3310;DHT22;1667;53.238;10.394;2023-09-12T06:06:07;22.70;99.50
3310;DHT22;1667;53.238;10.394;2023-09-12T06:11:06;22.70;99.60
3310;DHT22;1667;53.238;10.394;2023-09-12T06:16:06;22.60;99.60
3310;DHT22;1667;53.238;10.394;2023-09-12T06:21:05;22.60;99.80
3310;DHT22;1667;53.238;10.394;2023-09-12T06:26:06;22.60;99.90
3310;DHT22;1667;53.238;10.394;2023-09-12T06:31:09;22.60;99.90
3310;DHT22;1667;53.238;10.394;2023-09-12T06:36:08;22.60;99.90
3310;DHT22;1667;53.238;10.394;2023-09-12T06:41:09;22.60;99.90
3310;DHT22;1667;53.238;10.394;2023-09-12T06:46:09;22.60;99.90
3310;DHT22;1667;53.238;10.394;2023-09-12T06:51:09;22.60;99.90
3310;DHT22;1667;53.238;10.394;2023-09-12T06:56:13;22.70;99.90
3310;DHT22;1667;53.238;10.394;2023-09-12T07:01:13;22.70;99.90
3310;DHT22;1667;53.238;10.394;2023-09-12T07:06:12;22.80;99.90
3310;DHT22;1667;53.238;10.394;2023-09-12T07:11:10;22.80;99.90
3310;DHT22;1667;53.238;10.394;2023-09-12T07:16:09;22.80;99.90
3310;DHT22;1667;53.238;10.394;2023-09-12T07:21:11;22.80;99.90
3310;DHT22;1667;53.238;10.394;2023-09-12T07:26:12;22.80;99.90
3310;DHT22;1667;53.238;10.394;2023-09-12T07:31:11;22.80;99.90
3310;DHT22;1667;53.238;10.394;2023-09-12T07:36:12;22.80;99.90
3310;DHT22;1667;53.238;10.394;2023-09-12T07:41:11;22.80;99.90
3310;DHT22;1667;53.238;10.394;2023-09-12T07:46:10;22.80;99.90
3310;DHT22;1667;53.238;10.394;2023-09-12T07:51:15;22.80;99.90
3310;DHT22;1667;53.238;10.394;2023-09-12T07:56:15;22.80;99.90
3310;DHT22;1667;53.238;10.394;2023-09-12T08:01:14;22.80;99.90
3310;DHT22;1667;53.238;10.394;2023-09-12T08:06:14;22.80;99.90
3310;DHT22;1667;53.238;10.394;2023-09-12T08:11:13;22.80;99.90
3310;DHT22;1667;53.238;10.394;2023-09-12T08:16:12;22.70;99.90
3310;DHT22;1667;53.238;10.394;2023-09-12T08:21:11;22.80;99.90
3310;DHT22;1667;53.238;10.394;2023-09-12T08:26:11;22.70;99.90
3310;DHT22;1667;53.238;10.394;2023-09-12T08:31:11;22.80;99.90
3310;DHT22;1667;53.238;10.394;2023-09-12T08:36:10;22.80;99.90
3310;DHT22;1667;53.238;10.394;2023-09-12T08:41:09;22.80;99.90
3310;DHT22;1667;53.238;10.394;2023-09-12T08:46:09;22.80;99.90
3310;DHT22;1667;53.238;10.394;2023-09-12T08:51:10;22.90;99.90
3310;DHT22;1667;53.238;10.394;2023-09-12T08:56:10;22.90;99.90
3310;DHT22;1667;53.238;10.394;2023-09-12T09:01:13;23.00;99.90
3310;DHT22;1667;53.238;10.394;2023-09-12T09:06:13;23.10;99.90
3310;DHT22;1667;53.238;10.394;2023-09-12T09:11:13;23.20;99.90
3310;DHT22;1667;53.238;10.394;2023-09-12T09:16:16;23.30;99.90
3310;DHT22;1667;53.238;10.394;2023-09-12T09:21:17;23.40;99.90
3310;DHT22;1667;53.238;10.394;2023-09-12T09:26:17;23.50;99.90
3310;DHT22;1667;53.238;10.394;2023-09-12T09:31:17;23.60;99.90
3310;DHT22;1667;53.238;10.394;2023-09-12T09:36:15;23.70;99.90
3310;DHT22;1667;53.238;10.394;2023-09-12T09:41:14;23.80;99.90
3310;DHT22;1667;53.238;10.394;2023-09-12T09:46:16;23.90;99.90
3310;DHT22;1667;53.238;10.394;2023-09-12T09:51:16;24.10;99.90
3310;DHT22;1667;53.238;10.394;2023-09-12T10:01:59;24.30;99.90
3310;DHT22;1667;53.238;10.394;2023-09-12T10:07:00;24.40;99.90
3310;DHT22;1667;53.238;10.394;2023-09-12T10:11:59;24.50;99.90
3310;DHT22;1667;53.238;10.394;2023-09-12T10:17:02;24.60;99.90
3310;DHT22;1667;53.238;10.394;2023-09-12T10:22:06;24.80;99.90
3310;DHT22;1667;53.238;10.394;2023-09-12T10:27:08;24.80;99.90
3310;DHT22;1667;53.238;10.394;2023-09-12T10:32:09;24.80;99.90
3310;DHT22;1667;53.238;10.394;2023-09-12T10:37:09;24.80;99.90
3310;DHT22;1667;53.238;10.394;2023-09-12T10:42:09;24.70;99.90
3310;DHT22;1667;53.238;10.394;2023-09-12T10:47:11;24.70;99.90
3310;DHT22;1667;53.238;10.394;2023-09-12T10:52:10;24.60;99.90
3310;DHT22;1667;53.238;10.394;2023-09-12T10:57:11;24.60;99.90
3310;DHT22;1667;53.238;10.394;2023-09-12T11:02:32;24.50;99.90
3310;DHT22;1667;53.238;10.394;2023-09-12T11:07:34;24.40;99.90
3310;DHT22;1667;53.238;10.394;2023-09-12T11:12:41;24.30;99.90
3310;DHT22;1667;53.238;10.394;2023-09-12T11:17:43;24.10;99.90
3310;DHT22;1667;53.238;10.394;2023-09-12T11:22:42;24.10;99.90
3310;DHT22;1667;53.238;10.394;2023-09-12T11:27:45;23.90;99.90
3310;DHT22;1667;53.238;10.394;2023-09-12T11:32:47;23.80;99.90
3310;DHT22;1667;53.238;10.394;2023-09-12T11:37:48;23.80;99.90
3310;DHT22;1667;53.238;10.394;2023-09-12T11:42:48;23.70;99.90
3310;DHT22;1667;53.238;10.394;2023-09-12T11:47:48;23.70;99.90
3310;DHT22;1667;53.238;10.394;2023-09-12T11:52:48;23.60;99.90
3310;DHT22;1667;53.238;10.394;2023-09-12T11:57:47;23.60;99.90
3310;DHT22;1667;53.238;10.394;2023-09-12T12:02:46;23.60;99.90
3310;DHT22;1667;53.238;10.394;2023-09-12T12:07:47;23.50;99.90
3310;DHT22;1667;53.238;10.394;2023-09-12T12:12:46;23.50;99.90
3310;DHT22;1667;53.238;10.394;2023-09-12T12:17:45;23.50;99.90
3310;DHT22;1667;53.238;10.394;2023-09-12T12:22:44;23.50;99.90
3310;DHT22;1667;53.238;10.394;2023-09-12T12:27:44;23.40;99.90
3310;DHT22;1667;53.238;10.394;2023-09-12T12:32:45;23.40;99.90
3310;DHT22;1667;53.238;10.394;2023-09-12T12:37:45;23.40;99.90
3310;DHT22;1667;53.238;10.394;2023-09-12T12:42:57;23.40;99.90
3310;DHT22;1667;53.238;10.394;2023-09-12T12:47:58;23.40;99.90
3310;DHT22;1667;53.238;10.394;2023-09-12T12:52:58;23.40;99.90
3310;DHT22;1667;53.238;10.394;2023-09-12T12:57:58;23.40;99.90
3310;DHT22;1667;53.238;10.394;2023-09-12T13:02:57;23.40;99.90
3310;DHT22;1667;53.238;10.394;2023-09-12T13:07:56;23.40;99.90
3310;DHT22;1667;53.238;10.394;2023-09-12T13:12:55;23.40;99.90
3310;DHT22;1667;53.238;10.394;2023-09-12T13:18:00;23.40;99.90
3310;DHT22;1667;53.238;10.394;2023-09-12T13:23:01;23.50;99.90
3310;DHT22;1667;53.238;10.394;2023-09-12T13:28:01;23.40;99.90
3310;DHT22;1667;53.238;10.394;2023-09-12T13:33:22;23.50;99.90
3310;DHT22;1667;53.238;10.394;2023-09-12T13:38:21;23.50;99.90
3310;DHT22;1667;53.238;10.394;2023-09-12T13:43:21;23.50;99.90
3310;DHT22;1667;53.238;10.394;2023-09-12T13:48:22;23.60;99.90
3310;DHT22;1667;53.238;10.394;2023-09-12T13:53:20;23.60;99.90
3310;DHT22;1667;53.238;10.394;2023-09-12T13:58:19;23.70;99.90
3310;DHT22;1667;53.238;10.394;2023-09-12T14:03:26;23.90;99.90
3310;DHT22;1667;53.238;10.394;2023-09-12T14:08:28;24.10;99.90
3310;DHT22;1667;53.238;10.394;2023-09-12T14:13:28;24.20;99.90
3310;DHT22;1667;53.238;10.394;2023-09-12T14:18:28;24.40;99.90
3310;DHT22;1667;53.238;10.394;2023-09-12T14:23:28;24.50;99.90
3310;DHT22;1667;53.238;10.394;2023-09-12T14:28:29;24.60;99.90
3310;DHT22;1667;53.238;10.394;2023-09-12T14:33:31;24.80;99.90
3310;DHT22;1667;53.238;10.394;2023-09-12T14:38:30;25.00;99.90
3310;DHT22;1667;53.238;10.394;2023-09-12T14:43:28;25.10;99.90
3310;DHT22;1667;53.238;10.394;2023-09-12T14:48:27;25.20;99.90
3310;DHT22;1667;53.238;10.394;2023-09-12T14:53:30;25.20;99.90
3310;DHT22;1667;53.238;10.394;2023-09-12T14:58:29;25.30;99.90
3310;DHT22;1667;53.238;10.394;2023-09-12T15:03:28;25.30;99.90
3310;DHT22;1667;53.238;10.394;2023-09-12T15:08:27;25.30;99.90
3310;DHT22;1667;53.238;10.394;2023-09-12T15:13:28;25.40;99.90
3310;DHT22;1667;53.238;10.394;2023-09-12T15:18:27;25.40;99.90
3310;DHT22;1667;53.238;10.394;2023-09-12T15:23:26;25.40;99.90
3310;DHT22;1667;53.238;10.394;2023-09-12T15:28:27;25.40;99.90
3310;DHT22;1667;53.238;10.394;2023-09-12T15:33:26;25.40;99.90
3310;DHT22;1667;53.238;10.394;2023-09-12T15:38:27;25.50;99.90
3310;DHT22;1667;53.238;10.394;2023-09-12T15:43:27;25.50;99.90
3310;DHT22;1667;53.238;10.394;2023-09-12T15:48:26;25.50;99.90
3310;DHT22;1667;53.238;10.394;2023-09-12T15:53:26;25.50;99.90
3310;DHT22;1667;53.238;10.394;2023-09-12T15:58:25;25.50;99.90
3310;DHT22;1667;53.238;10.394;2023-09-12T16:03:28;25.40;99.90
3310;DHT22;1667;53.238;10.394;2023-09-12T16:08:27;25.40;99.90
3310;DHT22;1667;53.238;10.394;2023-09-12T16:13:26;25.40;99.90
3310;DHT22;1667;53.238;10.394;2023-09-12T16:18:25;25.40;99.90
3310;DHT22;1667;53.238;10.394;2023-09-12T16:23:25;25.30;99.90
3310;DHT22;1667;53.238;10.394;2023-09-12T16:28:28;25.30;99.90
3310;DHT22;1667;53.238;10.394;2023-09-12T16:33:27;25.30;99.90
3310;DHT22;1667;53.238;10.394;2023-09-12T16:38:32;25.20;99.90
3310;DHT22;1667;53.238;10.394;2023-09-12T16:43:31;25.20;99.90
3310;DHT22;1667;53.238;10.394;2023-09-12T16:48:30;25.10;99.90
3310;DHT22;1667;53.238;10.394;2023-09-12T16:53:29;25.10;99.90
3310;DHT22;1667;53.238;10.394;2023-09-12T16:58:29;25.00;99.90
3310;DHT22;1667;53.238;10.394;2023-09-12T17:03:29;25.00;99.90
3310;DHT22;1667;53.238;10.394;2023-09-12T17:08:29;24.90;99.90
3310;DHT22;1667;53.238;10.394;2023-09-12T17:13:30;24.90;99.90
3310;DHT22;1667;53.238;10.394;2023-09-12T17:18:58;24.80;99.90
3310;DHT22;1667;53.238;10.394;2023-09-12T17:23:57;24.80;99.90
3310;DHT22;1667;53.238;10.394;2023-09-12T17:28:56;24.70;99.90
3310;DHT22;1667;53.238;10.394;2023-09-12T17:33:56;24.60;99.90
3310;DHT22;1667;53.238;10.394;2023-09-12T17:38:55;24.60;99.90
3310;DHT22;1667;53.238;10.394;2023-09-12T17:43:54;24.50;99.90
3310;DHT22;1667;53.238;10.394;2023-09-12T17:48:55;24.40;99.90
3310;DHT22;1667;53.238;10.394;2023-09-12T17:53:54;24.40;99.90
3310;DHT22;1667;53.238;10.394;2023-09-12T17:58:53;24.30;99.90
3310;DHT22;1667;53.238;10.394;2023-09-12T18:03:52;24.20;99.90
3310;DHT22;1667;53.238;10.394;2023-09-12T18:08:53;24.10;99.90
3310;DHT22;1667;53.238;10.394;2023-09-12T18:13:52;24.00;99.90
3310;DHT22;1667;53.238;10.394;2023-09-12T18:25:47;23.80;99.90
3310;DHT22;1667;53.238;10.394;2023-09-12T18:30:47;23.70;99.90
3310;DHT22;1667;53.238;10.394;2023-09-12T18:35:46;23.60;99.90
3310;DHT22;1667;53.238;10.394;2023-09-12T18:40:46;23.40;99.90
3310;DHT22;1667;53.238;10.394;2023-09-12T18:45:46;23.40;99.90
3310;DHT22;1667;53.238;10.394;2023-09-12T18:50:46;23.20;99.90
3310;DHT22;1667;53.238;10.394;2023-09-12T18:55:47;23.20;99.90
3310;DHT22;1667;53.238;10.394;2023-09-12T19:00:47;23.10;99.90
3310;DHT22;1667;53.238;10.394;2023-09-12T19:05:46;23.00;99.90
3310;DHT22;1667;53.238;10.394;2023-09-12T19:10:47;23.00;99.90
3310;DHT22;1667;53.238;10.394;2023-09-12T19:15:46;22.90;99.90
3310;DHT22;1667;53.238;10.394;2023-09-12T19:20:45;22.80;99.90
3310;DHT22;1667;53.238;10.394;2023-09-12T19:25:44;22.80;99.90
3310;DHT22;1667;53.238;10.394;2023-09-12T19:30:46;22.70;99.90
3310;DHT22;1667;53.238;10.394;2023-09-12T19:35:46;22.60;99.90
3310;DHT22;1667;53.238;10.394;2023-09-12T19:40:45;22.50;99.90
3310;DHT22;1667;53.238;10.394;2023-09-12T19:45:43;22.40;99.90
3310;DHT22;1667;53.238;10.394;2023-09-12T19:50:46;22.40;99.90
3310;DHT22;1667;53.238;10.394;2023-09-12T19:55:49;22.40;99.90
3310;DHT22;1667;53.238;10.394;2023-09-12T20:00:49;22.30;99.90
3310;DHT22;1667;53.238;10.394;2023-09-12T20:05:49;22.20;99.90
3310;DHT22;1667;53.238;10.394;2023-09-12T20:10:49;22.10;99.90
3310;DHT22;1667;53.238;10.394;2023-09-12T20:15:48;22.10;99.90
3310;DHT22;1667;53.238;10.394;2023-09-12T20:20:49;22.10;99.90
3310;DHT22;1667;53.238;10.394;2023-09-12T20:25:50;22.10;99.90
3310;DHT22;1667;53.238;10.394;2023-09-12T20:31:16;22.00;99.90
3310;DHT22;1667;53.238;10.394;2023-09-12T20:36:17;22.00;99.90
3310;DHT22;1667;53.238;10.394;2023-09-12T20:41:16;21.90;99.90
3310;DHT22;1667;53.238;10.394;2023-09-12T20:46:16;21.80;99.90
3310;DHT22;1667;53.238;10.394;2023-09-12T20:51:17;21.80;99.90
3310;DHT22;1667;53.238;10.394;2023-09-12T20:56:15;21.80;99.90
3310;DHT22;1667;53.238;10.394;2023-09-12T21:01:14;21.70;99.90
3310;DHT22;1667;53.238;10.394;2023-09-12T21:06:13;21.70;99.90
3310;DHT22;1667;53.238;10.394;2023-09-12T21:11:14;21.60;99.90
3310;DHT22;1667;53.238;10.394;2023-09-12T21:16:12;21.60;99.90
3310;DHT22;1667;53.238;10.394;2023-09-12T21:21:11;21.50;99.90
3310;DHT22;1667;53.238;10.394;2023-09-12T21:26:10;21.50;99.90
3310;DHT22;1667;53.238;10.394;2023-09-12T21:31:11;21.50;99.90
3310;DHT22;1667;53.238;10.394;2023-09-12T21:36:10;21.40;99.90
3310;DHT22;1667;53.238;10.394;2023-09-12T21:41:10;21.40;99.90
3310;DHT22;1667;53.238;10.394;2023-09-12T21:46:08;21.30;99.90
3310;DHT22;1667;53.238;10.394;2023-09-12T21:51:09;21.30;99.90
3310;DHT22;1667;53.238;10.394;2023-09-12T21:56:09;21.30;99.90
3310;DHT22;1667;53.238;10.394;2023-09-12T22:01:07;21.20;99.90
3310;DHT22;1667;53.238;10.394;2023-09-12T22:06:07;21.20;99.90
3310;DHT22;1667;53.238;10.394;2023-09-12T22:11:07;21.20;99.90
3310;DHT22;1667;53.238;10.394;2023-09-12T22:16:06;21.10;99.90
3310;DHT22;1667;53.238;10.394;2023-09-12T22:21:06;21.10;99.90
3310;DHT22;1667;53.238;10.394;2023-09-12T22:26:11;21.10;99.90
3310;DHT22;1667;53.238;10.394;2023-09-12T22:31:13;21.10;99.90
3310;DHT22;1667;53.238;10.394;2023-09-12T22:36:11;21.10;99.90
3310;DHT22;1667;53.238;10.394;2023-09-12T22:41:16;21.10;99.90
3310;DHT22;1667;53.238;10.394;2023-09-12T22:46:18;21.10;99.90
3310;DHT22;1667;53.238;10.394;2023-09-12T22:51:17;21.10;99.90
3310;DHT22;1667;53.238;10.394;2023-09-12T22:56:17;21.10;99.90
3310;DHT22;1667;53.238;10.394;2023-09-12T23:01:16;21.10;99.90
3310;DHT22;1667;53.238;10.394;2023-09-12T23:06:15;21.10;99.90
3310;DHT22;1667;53.238;10.394;2023-09-12T23:11:14;21.10;99.90
3310;DHT22;1667;53.238;10.394;2023-09-12T23:16:14;21.10;99.90
3310;DHT22;1667;53.238;10.394;2023-09-12T23:21:14;21.10;99.90
3310;DHT22;1667;53.238;10.394;2023-09-12T23:26:13;21.10;99.90
3310;DHT22;1667;53.238;10.394;2023-09-12T23:31:14;21.00;99.90
3310;DHT22;1667;53.238;10.394;2023-09-12T23:36:12;21.00;99.90
3310;DHT22;1667;53.238;10.394;2023-09-12T23:41:11;21.00;99.90
3310;DHT22;1667;53.238;10.394;2023-09-12T23:46:09;21.00;99.90
3310;DHT22;1667;53.238;10.394;2023-09-12T23:51:10;21.00;99.90
3310;DHT22;1667;53.238;10.394;2023-09-12T23:56:09;21.00;99.90
